createdAt,value
2017-08-20T00:02:11.645Z,63.00
2017-08-20T00:04:45.146Z,62.70
2017-08-20T00:07:19.047Z,62.50
2017-08-20T00:09:52.657Z,62.40
2017-08-20T00:12:26.149Z,62.30
2017-08-20T00:14:59.758Z,62.00
2017-08-20T00:17:33.453Z,61.90
2017-08-20T00:20:07.152Z,61.90
2017-08-20T00:22:40.734Z,61.80
2017-08-20T00:25:14.460Z,62.00
2017-08-20T00:27:48.163Z,61.70
2017-08-20T00:30:21.763Z,61.60
2017-08-20T00:32:55.789Z,61.50
2017-08-20T00:35:29.362Z,61.40
2017-08-20T00:38:03.055Z,61.50
2017-08-20T00:40:36.982Z,61.40
2017-08-20T00:43:10.777Z,61.40
2017-08-20T00:45:44.395Z,61.50
2017-08-20T00:48:17.963Z,61.40
2017-08-20T00:50:51.605Z,61.50
2017-08-20T00:53:25.316Z,61.60
2017-08-20T00:55:58.992Z,61.40
2017-08-20T00:58:32.602Z,61.20
2017-08-20T01:01:06.879Z,61.20
2017-08-20T01:03:40.517Z,61.20
2017-08-20T01:06:15.698Z,61.90
2017-08-20T01:08:50.983Z,61.40
2017-08-20T01:11:24.599Z,61.40
2017-08-20T01:13:58.187Z,61.60
2017-08-20T01:16:31.903Z,61.80
2017-08-20T01:19:05.676Z,61.80
2017-08-20T01:21:39.404Z,61.80
2017-08-20T01:24:13.008Z,61.90
2017-08-20T01:26:47.383Z,62.00
2017-08-20T01:29:21.026Z,62.00
2017-08-20T01:31:54.756Z,62.00
2017-08-20T01:34:29.017Z,61.60
2017-08-20T01:37:02.655Z,61.60
2017-08-20T01:39:36.403Z,61.70
2017-08-20T01:42:10.063Z,61.90
2017-08-20T01:44:43.694Z,61.90
2017-08-20T01:47:18.279Z,61.90
2017-08-20T01:49:52.459Z,61.90
2017-08-20T01:52:26.098Z,61.90
2017-08-20T01:54:59.699Z,61.90
2017-08-20T01:57:34.121Z,61.60
2017-08-20T02:00:07.720Z,61.50
2017-08-20T02:02:41.382Z,61.90
2017-08-20T02:05:14.970Z,61.90
2017-08-20T02:07:48.716Z,61.90
2017-08-20T02:10:22.429Z,61.80
2017-08-20T02:12:56.034Z,61.80
2017-08-20T02:15:30.347Z,61.80
2017-08-20T02:18:03.948Z,61.70
2017-08-20T02:20:37.552Z,62.00
2017-08-20T02:23:11.255Z,61.90
2017-08-20T02:25:44.828Z,62.00
2017-08-20T02:28:19.025Z,61.80
2017-08-20T02:30:52.562Z,61.90
2017-08-20T02:33:27.040Z,61.60
2017-08-20T02:36:00.796Z,61.60
2017-08-20T02:38:34.699Z,61.40
2017-08-20T02:41:08.400Z,61.40
2017-08-20T02:43:41.997Z,61.40
2017-08-20T02:46:15.496Z,61.30
2017-08-20T02:48:49.051Z,61.40
2017-08-20T02:51:22.796Z,61.50
2017-08-20T02:53:56.452Z,61.40
2017-08-20T02:56:30.827Z,62.20
2017-08-20T02:59:05.547Z,61.50
2017-08-20T03:01:39.242Z,61.50
2017-08-20T03:04:14.201Z,61.20
2017-08-20T03:06:47.883Z,61.20
2017-08-20T03:09:21.440Z,61.20
2017-08-20T03:11:55.098Z,61.20
2017-08-20T03:14:28.709Z,61.30
2017-08-20T03:17:02.374Z,61.00
2017-08-20T03:19:36.007Z,61.00
2017-08-20T03:22:10.521Z,60.60
2017-08-20T03:24:44.261Z,60.70
2017-08-20T03:27:18.140Z,60.60
2017-08-20T03:29:51.947Z,60.60
2017-08-20T03:32:25.548Z,60.60
2017-08-20T03:34:59.888Z,61.00
2017-08-20T03:37:33.767Z,61.10
2017-08-20T03:40:07.366Z,60.80
2017-08-20T03:42:40.965Z,60.70
2017-08-20T03:45:14.523Z,60.80
2017-08-20T03:47:48.274Z,61.00
2017-08-20T03:50:21.866Z,60.80
2017-08-20T03:52:55.480Z,61.00
2017-08-20T03:55:29.173Z,60.90
2017-08-20T03:58:03.390Z,61.10
2017-08-20T04:00:37.152Z,61.30
2017-08-20T04:03:10.996Z,61.10
2017-08-20T04:05:44.701Z,61.20
2017-08-20T04:08:18.302Z,61.30
2017-08-20T04:10:52.108Z,61.00
2017-08-20T04:13:25.909Z,60.70
2017-08-20T04:15:59.612Z,60.60
2017-08-20T04:18:33.181Z,60.60
2017-08-20T04:21:06.766Z,60.80
2017-08-20T04:23:40.415Z,60.70
2017-08-20T04:26:14.530Z,60.40
2017-08-20T04:28:48.128Z,60.60
2017-08-20T04:31:21.727Z,60.50
2017-08-20T04:33:56.256Z,60.80
2017-08-20T04:36:30.527Z,60.70
2017-08-20T04:39:04.027Z,60.70
2017-08-20T04:41:37.777Z,60.60
2017-08-20T04:44:11.478Z,60.70
2017-08-20T04:46:45.184Z,60.70
2017-08-20T04:49:18.780Z,60.70
2017-08-20T04:51:52.340Z,60.70
2017-08-20T04:54:26.068Z,60.50
2017-08-20T04:56:59.666Z,60.50
2017-08-20T04:59:33.285Z,60.50
2017-08-20T05:02:06.767Z,60.50
2017-08-20T05:04:41.001Z,60.60
2017-08-20T05:07:15.516Z,61.20
2017-08-20T05:09:49.233Z,60.50
2017-08-20T05:12:23.030Z,60.50
2017-08-20T05:14:56.590Z,60.70
2017-08-20T05:17:30.221Z,61.00
2017-08-20T05:20:03.922Z,61.00
2017-08-20T05:22:37.674Z,60.70
2017-08-20T05:25:11.549Z,61.20
2017-08-20T05:27:45.344Z,60.90
2017-08-20T05:30:19.155Z,60.70
2017-08-20T05:32:52.860Z,61.10
2017-08-20T05:35:26.664Z,61.50
2017-08-20T05:38:00.268Z,61.60
2017-08-20T05:40:34.789Z,61.70
2017-08-20T05:43:08.693Z,61.60
2017-08-20T05:45:42.198Z,61.50
2017-08-20T05:48:16.616Z,61.20
2017-08-20T05:50:50.320Z,61.40
2017-08-20T05:53:23.868Z,60.60
2017-08-20T05:55:57.518Z,60.40
2017-08-20T05:58:31.110Z,60.40
2017-08-20T06:01:04.610Z,60.10
2017-08-20T06:03:38.109Z,60.50
2017-08-20T06:06:11.675Z,60.10
2017-08-20T06:08:45.314Z,60.40
2017-08-20T06:11:18.907Z,61.10
2017-08-20T06:13:52.516Z,61.40
2017-08-20T06:16:26.218Z,61.40
2017-08-20T06:18:59.919Z,61.90
2017-08-20T06:21:34.964Z,62.10
2017-08-20T06:24:10.092Z,62.10
2017-08-20T06:26:43.686Z,62.30
2017-08-20T06:29:17.304Z,62.50
2017-08-20T06:31:50.990Z,62.80
2017-08-20T06:34:24.702Z,62.50
2017-08-20T06:36:58.396Z,62.80
2017-08-20T06:39:32.007Z,63.00
2017-08-20T06:42:05.703Z,62.90
2017-08-20T06:44:40.150Z,62.50
2017-08-20T06:47:13.932Z,62.50
2017-08-20T06:49:47.632Z,62.30
2017-08-20T06:52:21.328Z,61.80
2017-08-20T06:54:55.701Z,62.00
2017-08-20T06:57:29.663Z,61.90
2017-08-20T07:00:03.207Z,62.00
2017-08-20T07:02:37.068Z,61.80
2017-08-20T07:05:10.514Z,61.50
2017-08-20T07:07:44.352Z,61.70
2017-08-20T07:10:17.974Z,61.30
2017-08-20T07:12:51.677Z,61.70
2017-08-20T07:15:25.645Z,61.90
2017-08-20T07:17:59.190Z,61.30
2017-08-20T07:20:32.762Z,61.30
2017-08-20T07:23:06.487Z,61.40
2017-08-20T07:25:39.997Z,60.90
2017-08-20T07:28:15.049Z,61.00
2017-08-20T07:30:49.444Z,61.80
2017-08-20T07:33:23.053Z,61.60
2017-08-20T07:35:56.868Z,61.30
2017-08-20T07:38:30.556Z,61.70
2017-08-20T07:41:04.254Z,61.80
2017-08-20T07:43:37.963Z,61.20
2017-08-20T07:46:11.872Z,61.00
2017-08-20T07:48:45.473Z,61.10
2017-08-20T07:51:18.927Z,60.50
2017-08-20T07:53:53.488Z,60.70
2017-08-20T07:56:27.078Z,60.40
2017-08-20T07:59:00.685Z,60.20
2017-08-20T08:01:34.286Z,60.10
2017-08-20T08:04:07.904Z,59.90
2017-08-20T08:06:41.492Z,59.50
2017-08-20T08:09:15.257Z,60.00
2017-08-20T08:11:49.042Z,59.70
2017-08-20T08:14:22.665Z,59.60
2017-08-20T08:16:56.508Z,59.60
2017-08-20T08:19:30.318Z,59.70
2017-08-20T08:22:04.119Z,59.80
2017-08-20T08:24:37.933Z,59.70
2017-08-20T08:27:11.815Z,59.40
2017-08-20T08:29:46.318Z,59.30
2017-08-20T08:32:19.855Z,59.30
2017-08-20T08:34:53.543Z,59.40
2017-08-20T08:37:27.051Z,59.20
2017-08-20T08:40:00.762Z,59.00
2017-08-20T08:42:35.154Z,59.00
2017-08-20T08:45:08.885Z,59.00
2017-08-20T08:47:43.297Z,58.20
2017-08-20T08:50:16.798Z,58.30
2017-08-20T08:52:50.964Z,58.30
2017-08-20T08:55:24.610Z,58.60
2017-08-20T08:57:58.936Z,58.20
2017-08-20T09:00:32.626Z,58.20
2017-08-20T09:03:06.124Z,58.30
2017-08-20T09:05:39.679Z,58.20
2017-08-20T09:08:13.237Z,58.20
2017-08-20T09:10:46.726Z,58.30
2017-08-20T09:13:20.806Z,58.40
2017-08-20T09:15:54.412Z,58.30
2017-08-20T09:18:28.038Z,58.40
2017-08-20T09:21:01.541Z,58.40
2017-08-20T09:23:35.090Z,58.30
2017-08-20T09:26:09.354Z,57.50
2017-08-20T09:28:43.630Z,57.50
2017-08-20T09:31:17.179Z,57.10
2017-08-20T09:33:50.776Z,56.50
2017-08-20T09:36:24.577Z,56.30
2017-08-20T09:38:58.066Z,56.80
2017-08-20T09:41:31.670Z,56.70
2017-08-20T09:44:06.811Z,56.40
2017-08-20T09:46:40.416Z,56.40
2017-08-20T09:49:14.006Z,55.80
2017-08-20T09:51:48.054Z,55.50
2017-08-20T09:54:21.807Z,55.60
2017-08-20T09:56:55.504Z,55.80
2017-08-20T09:59:29.339Z,55.60
2017-08-20T10:02:03.231Z,55.70
2017-08-20T10:04:36.943Z,55.20
2017-08-20T10:07:10.962Z,54.90
2017-08-20T10:09:45.381Z,53.90
2017-08-20T10:12:18.968Z,53.90
2017-08-20T10:14:52.582Z,53.60
2017-08-20T10:17:26.274Z,53.80
2017-08-20T10:19:59.989Z,54.20
2017-08-20T10:22:34.203Z,54.30
2017-08-20T10:25:07.776Z,54.50
2017-08-20T10:27:42.287Z,53.90
2017-08-20T10:30:16.024Z,54.10
2017-08-20T10:32:49.611Z,54.40
2017-08-20T10:35:23.530Z,54.80
2017-08-20T10:37:57.137Z,55.20
2017-08-20T10:40:31.246Z,54.30
2017-08-20T10:43:04.860Z,53.80
2017-08-20T10:45:38.454Z,53.80
2017-08-20T10:48:12.263Z,53.80
2017-08-20T10:50:45.860Z,53.80
2017-08-20T10:53:19.564Z,53.40
2017-08-20T10:55:53.271Z,53.00
2017-08-20T10:58:27.995Z,51.70
2017-08-20T11:01:01.596Z,51.70
2017-08-20T11:03:35.297Z,51.40
2017-08-20T11:06:08.896Z,51.30
2017-08-20T11:08:42.586Z,51.40
2017-08-20T11:11:16.201Z,51.40
2017-08-20T11:13:49.804Z,51.70
2017-08-20T11:16:23.399Z,51.10
2017-08-20T11:18:56.864Z,50.60
2017-08-20T11:21:30.498Z,51.00
2017-08-20T11:24:04.205Z,50.30
2017-08-20T11:26:37.697Z,50.30
2017-08-20T11:29:12.127Z,50.40
2017-08-20T11:31:45.825Z,50.30
2017-08-20T11:34:19.323Z,50.90
2017-08-20T11:36:52.817Z,50.40
2017-08-20T11:39:26.345Z,50.30
2017-08-20T11:42:00.021Z,50.30
2017-08-20T11:44:33.724Z,50.40
2017-08-20T11:47:07.845Z,50.50
2017-08-20T11:49:41.432Z,49.90
2017-08-20T11:52:15.754Z,48.30
2017-08-20T11:54:49.344Z,48.20
2017-08-20T11:57:22.891Z,48.30
2017-08-20T11:59:57.157Z,47.80
2017-08-20T12:02:30.768Z,48.60
2017-08-20T12:05:04.352Z,48.50
2017-08-20T12:07:37.874Z,49.00
2017-08-20T12:10:11.463Z,49.60
2017-08-20T12:12:45.071Z,49.50
2017-08-20T12:15:20.099Z,50.20
2017-08-20T12:17:53.654Z,50.20
2017-08-20T12:20:27.216Z,50.00
2017-08-20T12:23:00.853Z,49.60
2017-08-20T12:25:34.479Z,48.70
2017-08-20T12:28:08.214Z,48.80
2017-08-20T12:30:41.814Z,49.20
2017-08-20T12:33:15.502Z,49.50
2017-08-20T12:35:49.123Z,50.30
2017-08-20T12:38:22.614Z,50.80
2017-08-20T12:40:57.142Z,52.10
2017-08-20T12:43:30.692Z,51.80
2017-08-20T12:46:04.398Z,52.10
2017-08-20T12:48:38.753Z,52.40
2017-08-20T12:51:12.376Z,52.40
2017-08-20T12:53:46.848Z,52.70
2017-08-20T12:56:20.383Z,52.60
2017-08-20T12:58:53.982Z,52.60
2017-08-20T13:01:27.480Z,52.80
2017-08-20T13:04:01.859Z,52.90
2017-08-20T13:06:35.456Z,52.90
2017-08-20T13:09:08.983Z,53.10
2017-08-20T13:11:42.598Z,53.20
2017-08-20T13:14:16.200Z,53.40
2017-08-20T13:16:49.798Z,53.60
2017-08-20T13:19:23.398Z,53.70
2017-08-20T13:21:57.101Z,53.70
2017-08-20T13:24:30.679Z,53.70
2017-08-20T13:27:04.410Z,53.40
2017-08-20T13:29:38.581Z,53.50
2017-08-20T13:32:12.219Z,53.50
2017-08-20T13:34:45.722Z,53.60
2017-08-20T13:37:19.205Z,53.90
2017-08-20T13:39:52.764Z,54.20
2017-08-20T13:42:26.411Z,54.10
2017-08-20T13:45:00.027Z,54.40
2017-08-20T13:47:33.784Z,54.30
2017-08-20T13:50:07.416Z,54.20
2017-08-20T13:52:41.081Z,54.20
2017-08-20T13:55:15.962Z,54.40
2017-08-20T13:57:49.657Z,54.30
2017-08-20T14:00:23.216Z,54.50
2017-08-20T14:02:56.865Z,55.00
2017-08-20T14:05:30.890Z,54.60
2017-08-20T14:08:04.450Z,54.70
2017-08-20T14:10:38.048Z,54.70
2017-08-20T14:13:11.807Z,55.00
2017-08-20T14:15:46.389Z,55.00
2017-08-20T14:18:19.994Z,55.00
2017-08-20T14:20:53.490Z,55.30
2017-08-20T14:23:27.613Z,55.30
2017-08-20T14:26:01.311Z,55.20
2017-08-20T14:28:35.006Z,55.20
2017-08-20T14:31:08.619Z,55.10
2017-08-20T14:33:42.215Z,55.30
2017-08-20T14:36:15.930Z,55.20
2017-08-20T14:38:49.518Z,55.20
2017-08-20T14:41:23.331Z,54.10
2017-08-20T14:43:57.007Z,53.20
2017-08-20T14:49:28.182Z,53.70
2017-08-20T14:52:01.789Z,53.40
2017-08-20T14:54:35.506Z,53.30
2017-08-20T14:57:09.166Z,52.80
2017-08-20T14:59:42.786Z,53.00
2017-08-20T15:02:16.314Z,52.70
2017-08-20T15:04:49.906Z,52.50
2017-08-20T15:07:23.911Z,52.50
2017-08-20T15:09:57.774Z,52.70
2017-08-20T15:12:31.512Z,53.00
2017-08-20T15:15:05.315Z,52.90
2017-08-20T15:17:39.023Z,52.70
2017-08-20T15:20:12.622Z,52.90
2017-08-20T15:22:46.887Z,52.90
2017-08-20T15:25:21.156Z,53.30
2017-08-20T15:27:54.855Z,53.10
2017-08-20T15:30:28.571Z,52.70
2017-08-20T15:33:03.146Z,53.80
2017-08-20T15:35:37.510Z,53.00
2017-08-20T15:38:11.319Z,53.00
2017-08-20T15:40:44.919Z,52.60
2017-08-20T15:43:18.578Z,52.50
2017-08-20T15:45:52.115Z,52.60
2017-08-20T15:48:25.711Z,52.60
2017-08-20T15:51:00.359Z,52.90
2017-08-20T15:53:34.145Z,52.80
2017-08-20T15:56:07.738Z,52.60
2017-08-20T15:58:41.448Z,52.60
2017-08-20T16:01:15.251Z,51.60
2017-08-20T16:03:48.978Z,51.00
2017-08-20T16:06:23.478Z,50.40
2017-08-20T16:08:57.276Z,50.40
2017-08-20T16:11:30.878Z,50.90
2017-08-20T16:14:04.482Z,51.10
2017-08-20T16:16:38.093Z,51.30
2017-08-20T16:19:11.785Z,51.20
2017-08-20T16:21:45.374Z,51.00
2017-08-20T16:24:18.932Z,51.20
2017-08-20T16:26:52.582Z,50.90
2017-08-20T16:29:26.186Z,50.60
2017-08-20T16:31:59.788Z,51.00
2017-08-20T16:34:33.356Z,51.00
2017-08-20T16:37:07.146Z,51.10
2017-08-20T16:39:40.896Z,51.20
2017-08-20T16:42:14.604Z,51.10
2017-08-20T16:44:48.201Z,50.80
2017-08-20T16:47:21.802Z,51.00
2017-08-20T16:49:55.283Z,51.10
2017-08-20T16:52:29.199Z,50.70
2017-08-20T16:55:02.782Z,50.90
2017-08-20T16:57:36.410Z,51.20
2017-08-20T17:00:10.110Z,50.60
2017-08-20T17:02:43.606Z,51.30
2017-08-20T17:05:17.314Z,50.80
2017-08-20T17:07:50.811Z,51.00
2017-08-20T17:10:24.438Z,51.50
2017-08-20T17:12:57.966Z,51.00
2017-08-20T17:15:31.918Z,51.40
2017-08-20T17:18:05.686Z,51.20
2017-08-20T17:20:39.326Z,51.80
2017-08-20T17:23:12.882Z,51.80
2017-08-20T17:25:46.426Z,51.50
2017-08-20T17:28:20.226Z,51.60
2017-08-20T17:30:53.934Z,51.90
2017-08-20T17:33:27.624Z,51.50
2017-08-20T17:36:01.306Z,52.00
2017-08-20T17:38:34.946Z,51.50
2017-08-20T17:41:08.488Z,51.00
2017-08-20T17:43:42.142Z,51.90
2017-08-20T17:46:16.675Z,51.70
2017-08-20T17:48:50.262Z,51.80
2017-08-20T17:51:23.762Z,51.20
2017-08-20T17:53:58.286Z,52.80
2017-08-20T17:56:31.879Z,52.80
2017-08-20T17:59:05.598Z,53.20
2017-08-20T18:01:39.303Z,53.20
2017-08-20T18:04:12.998Z,53.00
2017-08-20T18:06:46.450Z,53.40
2017-08-20T18:09:20.186Z,53.60
2017-08-20T18:11:54.510Z,54.30
2017-08-20T18:14:28.010Z,54.30
2017-08-20T18:17:01.620Z,54.20
2017-08-20T18:19:35.206Z,54.40
2017-08-20T18:22:08.711Z,54.90
2017-08-20T18:24:42.370Z,54.80
2017-08-20T18:27:16.014Z,55.20
2017-08-20T18:29:50.538Z,55.80
2017-08-20T18:32:24.034Z,55.40
2017-08-20T18:34:57.634Z,55.50
2017-08-20T18:37:31.126Z,55.80
2017-08-20T18:40:04.742Z,56.00
2017-08-20T18:42:39.258Z,56.00
2017-08-20T18:45:13.882Z,56.50
2017-08-20T18:47:47.582Z,56.30
2017-08-20T18:50:21.078Z,56.60
2017-08-20T18:52:55.701Z,56.70
2017-08-20T18:55:29.332Z,56.70
2017-08-20T18:58:03.790Z,56.90
2017-08-20T19:00:37.418Z,56.90
2017-08-20T19:03:11.161Z,57.20
2017-08-20T19:05:45.038Z,57.40
2017-08-20T19:08:19.359Z,57.40
2017-08-20T19:10:52.938Z,57.40
2017-08-20T19:13:26.828Z,57.50
2017-08-20T19:16:00.466Z,57.60
2017-08-20T19:18:34.365Z,57.60
2017-08-20T19:21:08.178Z,57.70
2017-08-20T19:23:41.787Z,57.70
2017-08-20T19:26:16.203Z,57.80
2017-08-20T19:28:50.306Z,57.70
2017-08-20T19:31:24.059Z,57.80
2017-08-20T19:33:57.827Z,57.80
2017-08-20T19:36:31.532Z,58.00
2017-08-20T19:39:05.231Z,57.90
2017-08-20T19:41:39.354Z,57.80
2017-08-20T19:44:13.868Z,57.80
2017-08-20T19:46:47.452Z,57.80
2017-08-20T19:49:21.457Z,57.80
2017-08-20T19:51:55.042Z,57.80
2017-08-20T19:54:28.680Z,58.10
2017-08-20T19:57:02.170Z,58.20
2017-08-20T19:59:36.647Z,58.60
2017-08-20T20:02:10.298Z,58.50
2017-08-20T20:04:44.107Z,58.30
2017-08-20T20:07:17.646Z,58.30
2017-08-20T20:09:51.298Z,58.10
2017-08-20T20:12:25.620Z,57.80
2017-08-20T20:15:00.038Z,57.80
2017-08-20T20:17:33.742Z,57.90
2017-08-20T20:20:08.266Z,57.80
2017-08-20T20:22:42.059Z,58.20
2017-08-20T20:25:15.674Z,58.00
2017-08-20T20:27:49.368Z,57.80
2017-08-20T20:30:23.193Z,57.90
2017-08-20T20:32:56.971Z,58.00
2017-08-20T20:35:30.586Z,58.00
2017-08-20T20:38:05.007Z,58.00
2017-08-20T20:40:38.817Z,58.00
2017-08-20T20:43:13.853Z,58.10
2017-08-20T20:45:47.381Z,58.10
2017-08-20T20:48:21.668Z,58.20
2017-08-20T20:50:56.218Z,58.20
2017-08-20T20:53:29.882Z,58.40
2017-08-20T20:56:04.206Z,58.30
2017-08-20T20:58:38.021Z,58.10
2017-08-20T21:01:12.535Z,58.40
2017-08-20T21:03:46.134Z,58.20
2017-08-20T21:06:20.350Z,58.30
2017-08-20T21:08:54.046Z,58.30
2017-08-20T21:11:28.426Z,58.60
2017-08-20T21:14:02.077Z,58.20
2017-08-20T21:16:35.670Z,57.80
2017-08-20T21:19:09.374Z,57.80
2017-08-20T21:21:42.946Z,57.80
2017-08-20T21:24:16.570Z,58.00
2017-08-20T21:26:50.284Z,57.90
2017-08-20T21:29:24.882Z,58.00
2017-08-20T21:31:59.127Z,58.10
2017-08-20T21:34:32.815Z,58.00
2017-08-20T21:37:06.414Z,58.00
2017-08-20T21:39:40.006Z,58.00
2017-08-20T21:42:13.515Z,58.00
2017-08-20T21:44:47.222Z,58.20
2017-08-20T21:47:20.992Z,58.30
2017-08-20T21:49:54.830Z,58.30
2017-08-20T21:52:28.534Z,58.10
2017-08-20T21:55:02.038Z,58.00
2017-08-20T21:57:36.251Z,57.90
2017-08-20T22:00:10.154Z,58.00
2017-08-20T22:02:44.538Z,57.90
2017-08-20T22:05:18.174Z,58.10
2017-08-20T22:07:51.783Z,57.90
2017-08-20T22:10:26.308Z,58.20
2017-08-20T22:13:00.095Z,58.20
2017-08-20T22:15:33.720Z,58.10
2017-08-20T22:18:07.410Z,58.00
2017-08-20T22:20:41.114Z,58.00
2017-08-20T22:23:15.398Z,58.20
2017-08-20T22:25:49.134Z,58.20
2017-08-20T22:28:22.855Z,58.50
2017-08-20T22:30:57.161Z,58.40
2017-08-20T22:33:31.026Z,58.40
2017-08-20T22:36:04.682Z,58.50
2017-08-20T22:38:38.262Z,58.30
2017-08-20T22:41:11.862Z,58.10
2017-08-20T22:43:45.406Z,58.10
2017-08-20T22:46:19.997Z,58.10
2017-08-20T22:48:53.602Z,58.40
2017-08-20T22:51:27.915Z,58.50
2017-08-20T22:54:01.520Z,58.40
2017-08-20T22:56:35.922Z,58.30
2017-08-20T22:59:10.287Z,58.30
2017-08-20T23:01:43.903Z,58.20
2017-08-20T23:04:17.549Z,58.60
2017-08-20T23:06:51.873Z,58.30
2017-08-20T23:09:25.472Z,58.30
2017-08-20T23:11:59.142Z,58.10
2017-08-20T23:14:32.850Z,58.30
2017-08-20T23:17:06.475Z,58.30
2017-08-20T23:19:40.181Z,58.10
2017-08-20T23:22:13.674Z,58.50
2017-08-20T23:24:47.238Z,58.50
2017-08-20T23:27:21.810Z,58.70
2017-08-20T23:29:55.499Z,58.60
2017-08-20T23:32:29.714Z,58.70
2017-08-20T23:35:03.423Z,58.80
2017-08-20T23:37:36.994Z,59.00
2017-08-20T23:40:10.868Z,59.10
2017-08-20T23:42:44.730Z,58.80
2017-08-20T23:45:18.271Z,58.80
2017-08-20T23:47:52.035Z,59.10
2017-08-20T23:50:25.838Z,59.00
2017-08-20T23:53:00.203Z,59.30
2017-08-20T23:55:33.758Z,59.30
2017-08-20T23:58:08.281Z,58.70
